sensor_id;sensor_type;location;lat;lon;timestamp;P1;durP1;ratioP1;P2;durP2;ratioP2
7523;SDS011;3803;51.666;7.630;2023-02-05T00:00:17;21.80;;;16.07;;
7523;SDS011;3803;51.666;7.630;2023-02-05T00:00:38;21.70;;;16.17;;
7523;SDS011;3803;51.666;7.630;2023-02-05T00:00:59;22.30;;;15.82;;
7523;SDS011;3803;51.666;7.630;2023-02-05T00:01:20;19.90;;;15.20;;
7523;SDS011;3803;51.666;7.630;2023-02-05T00:01:40;18.93;;;15.00;;
7523;SDS011;3803;51.666;7.630;2023-02-05T00:02:01;18.85;;;15.00;;
7523;SDS011;3803;51.666;7.630;2023-02-05T00:02:25;17.35;;;14.82;;
7523;SDS011;3803;51.666;7.630;2023-02-05T00:02:46;17.42;;;14.70;;
7523;SDS011;3803;51.666;7.630;2023-02-05T00:03:07;18.08;;;14.90;;
7523;SDS011;3803;51.666;7.630;2023-02-05T00:03:27;20.25;;;15.60;;
7523;SDS011;3803;51.666;7.630;2023-02-05T00:03:48;20.88;;;15.40;;
7523;SDS011;3803;51.666;7.630;2023-02-05T00:04:09;19.97;;;15.40;;
7523;SDS011;3803;51.666;7.630;2023-02-05T00:04:29;19.17;;;15.37;;
7523;SDS011;3803;51.666;7.630;2023-02-05T00:04:50;21.15;;;16.17;;
7523;SDS011;3803;51.666;7.630;2023-02-05T00:05:11;22.13;;;16.40;;
7523;SDS011;3803;51.666;7.630;2023-02-05T00:05:31;21.67;;;16.30;;
7523;SDS011;3803;51.666;7.630;2023-02-05T00:05:52;20.42;;;16.10;;
7523;SDS011;3803;51.666;7.630;2023-02-05T00:06:13;20.23;;;15.75;;
7523;SDS011;3803;51.666;7.630;2023-02-05T00:06:34;20.60;;;15.50;;
7523;SDS011;3803;51.666;7.630;2023-02-05T00:06:54;19.93;;;15.10;;
7523;SDS011;3803;51.666;7.630;2023-02-05T00:07:15;20.50;;;15.37;;
7523;SDS011;3803;51.666;7.630;2023-02-05T00:07:35;20.83;;;15.02;;
7523;SDS011;3803;51.666;7.630;2023-02-05T00:07:56;21.67;;;15.27;;
7523;SDS011;3803;51.666;7.630;2023-02-05T00:08:16;20.08;;;14.75;;
7523;SDS011;3803;51.666;7.630;2023-02-05T00:08:37;19.73;;;15.20;;
7523;SDS011;3803;51.666;7.630;2023-02-05T00:08:57;19.37;;;15.20;;
7523;SDS011;3803;51.666;7.630;2023-02-05T00:09:18;18.70;;;14.85;;
7523;SDS011;3803;51.666;7.630;2023-02-05T00:09:39;19.40;;;14.30;;
7523;SDS011;3803;51.666;7.630;2023-02-05T00:10:00;19.08;;;14.30;;
7523;SDS011;3803;51.666;7.630;2023-02-05T00:10:21;18.35;;;14.38;;
7523;SDS011;3803;51.666;7.630;2023-02-05T00:10:41;17.50;;;14.63;;
7523;SDS011;3803;51.666;7.630;2023-02-05T00:11:02;19.13;;;14.75;;
7523;SDS011;3803;51.666;7.630;2023-02-05T00:11:28;21.55;;;15.23;;
7523;SDS011;3803;51.666;7.630;2023-02-05T00:11:49;21.45;;;15.13;;
7523;SDS011;3803;51.666;7.630;2023-02-05T00:12:10;19.90;;;15.30;;
7523;SDS011;3803;51.666;7.630;2023-02-05T00:12:31;18.30;;;14.90;;
7523;SDS011;3803;51.666;7.630;2023-02-05T00:12:51;18.40;;;14.90;;
7523;SDS011;3803;51.666;7.630;2023-02-05T00:13:12;17.75;;;14.30;;
7523;SDS011;3803;51.666;7.630;2023-02-05T00:13:33;17.30;;;14.27;;
7523;SDS011;3803;51.666;7.630;2023-02-05T00:13:53;18.70;;;14.18;;
7523;SDS011;3803;51.666;7.630;2023-02-05T00:14:14;18.35;;;14.20;;
7523;SDS011;3803;51.666;7.630;2023-02-05T00:14:34;18.07;;;13.73;;
7523;SDS011;3803;51.666;7.630;2023-02-05T00:14:55;16.42;;;13.90;;
7523;SDS011;3803;51.666;7.630;2023-02-05T00:15:16;16.60;;;14.30;;
7523;SDS011;3803;51.666;7.630;2023-02-05T00:15:40;16.80;;;14.27;;
7523;SDS011;3803;51.666;7.630;2023-02-05T00:16:05;17.90;;;14.48;;
7523;SDS011;3803;51.666;7.630;2023-02-05T00:16:36;18.70;;;14.30;;
7523;SDS011;3803;51.666;7.630;2023-02-05T00:16:56;18.98;;;14.30;;
7523;SDS011;3803;51.666;7.630;2023-02-05T00:17:17;19.33;;;14.63;;
7523;SDS011;3803;51.666;7.630;2023-02-05T00:17:38;19.77;;;15.18;;
7523;SDS011;3803;51.666;7.630;2023-02-05T00:17:58;17.93;;;14.60;;
7523;SDS011;3803;51.666;7.630;2023-02-05T00:18:19;17.77;;;14.25;;
7523;SDS011;3803;51.666;7.630;2023-02-05T00:18:40;17.83;;;14.23;;
7523;SDS011;3803;51.666;7.630;2023-02-05T00:19:01;19.30;;;14.75;;
7523;SDS011;3803;51.666;7.630;2023-02-05T00:19:22;19.55;;;15.20;;
7523;SDS011;3803;51.666;7.630;2023-02-05T00:20:27;19.90;;;14.20;;
7523;SDS011;3803;51.666;7.630;2023-02-05T00:20:48;19.53;;;14.13;;
7523;SDS011;3803;51.666;7.630;2023-02-05T00:21:09;22.05;;;14.32;;
7523;SDS011;3803;51.666;7.630;2023-02-05T00:21:31;22.75;;;14.20;;
7523;SDS011;3803;51.666;7.630;2023-02-05T00:21:52;23.43;;;14.50;;
7523;SDS011;3803;51.666;7.630;2023-02-05T00:22:12;23.55;;;14.57;;
7523;SDS011;3803;51.666;7.630;2023-02-05T00:22:33;21.50;;;14.90;;
7523;SDS011;3803;51.666;7.630;2023-02-05T00:22:53;20.00;;;14.47;;
7523;SDS011;3803;51.666;7.630;2023-02-05T00:23:14;17.98;;;14.05;;
7523;SDS011;3803;51.666;7.630;2023-02-05T00:23:35;16.23;;;13.80;;
7523;SDS011;3803;51.666;7.630;2023-02-05T00:23:56;17.42;;;14.38;;
7523;SDS011;3803;51.666;7.630;2023-02-05T00:24:17;17.40;;;14.80;;
7523;SDS011;3803;51.666;7.630;2023-02-05T00:24:38;19.60;;;15.20;;
7523;SDS011;3803;51.666;7.630;2023-02-05T00:24:58;19.10;;;14.88;;
7523;SDS011;3803;51.666;7.630;2023-02-05T00:25:19;19.70;;;15.05;;
7523;SDS011;3803;51.666;7.630;2023-02-05T00:25:39;18.40;;;14.40;;
7523;SDS011;3803;51.666;7.630;2023-02-05T00:26:00;19.10;;;14.55;;
7523;SDS011;3803;51.666;7.630;2023-02-05T00:26:21;20.10;;;14.80;;
7523;SDS011;3803;51.666;7.630;2023-02-05T00:26:42;21.67;;;15.18;;
7523;SDS011;3803;51.666;7.630;2023-02-05T00:27:02;23.30;;;15.67;;
7523;SDS011;3803;51.666;7.630;2023-02-05T00:27:23;22.13;;;15.33;;
7523;SDS011;3803;51.666;7.630;2023-02-05T00:27:44;21.40;;;15.30;;
7523;SDS011;3803;51.666;7.630;2023-02-05T00:28:04;18.90;;;14.35;;
7523;SDS011;3803;51.666;7.630;2023-02-05T00:28:25;18.17;;;14.27;;
7523;SDS011;3803;51.666;7.630;2023-02-05T00:28:46;17.65;;;13.77;;
7523;SDS011;3803;51.666;7.630;2023-02-05T00:29:08;20.05;;;14.20;;
7523;SDS011;3803;51.666;7.630;2023-02-05T00:29:28;22.30;;;14.65;;
7523;SDS011;3803;51.666;7.630;2023-02-05T00:29:49;21.50;;;14.77;;
7523;SDS011;3803;51.666;7.630;2023-02-05T00:30:10;19.73;;;15.00;;
7523;SDS011;3803;51.666;7.630;2023-02-05T00:30:32;19.50;;;14.77;;
7523;SDS011;3803;51.666;7.630;2023-02-05T00:30:52;21.03;;;15.37;;
7523;SDS011;3803;51.666;7.630;2023-02-05T00:31:22;20.23;;;15.23;;
7523;SDS011;3803;51.666;7.630;2023-02-05T00:31:44;18.95;;;14.93;;
7523;SDS011;3803;51.666;7.630;2023-02-05T00:32:08;17.95;;;15.23;;
7523;SDS011;3803;51.666;7.630;2023-02-05T00:32:29;20.63;;;16.10;;
7523;SDS011;3803;51.666;7.630;2023-02-05T00:32:58;20.27;;;15.93;;
7523;SDS011;3803;51.666;7.630;2023-02-05T00:33:19;18.60;;;15.30;;
7523;SDS011;3803;51.666;7.630;2023-02-05T00:33:41;17.90;;;15.02;;
7523;SDS011;3803;51.666;7.630;2023-02-05T00:34:03;18.92;;;15.52;;
7523;SDS011;3803;51.666;7.630;2023-02-05T00:34:25;19.20;;;15.63;;
7523;SDS011;3803;51.666;7.630;2023-02-05T00:34:45;19.73;;;15.77;;
7523;SDS011;3803;51.666;7.630;2023-02-05T00:35:06;21.60;;;15.90;;
7523;SDS011;3803;51.666;7.630;2023-02-05T00:35:27;21.05;;;15.68;;
7523;SDS011;3803;51.666;7.630;2023-02-05T00:35:47;20.37;;;15.67;;
7523;SDS011;3803;51.666;7.630;2023-02-05T00:36:09;17.85;;;15.60;;
7523;SDS011;3803;51.666;7.630;2023-02-05T00:36:31;17.58;;;15.45;;
7523;SDS011;3803;51.666;7.630;2023-02-05T00:36:52;17.60;;;15.00;;
7523;SDS011;3803;51.666;7.630;2023-02-05T00:37:12;17.40;;;14.77;;
7523;SDS011;3803;51.666;7.630;2023-02-05T00:37:33;17.90;;;15.20;;
7523;SDS011;3803;51.666;7.630;2023-02-05T00:37:54;18.90;;;15.50;;
7523;SDS011;3803;51.666;7.630;2023-02-05T00:38:15;18.40;;;15.45;;
7523;SDS011;3803;51.666;7.630;2023-02-05T00:38:36;19.20;;;15.63;;
7523;SDS011;3803;51.666;7.630;2023-02-05T00:38:57;17.90;;;15.50;;
7523;SDS011;3803;51.666;7.630;2023-02-05T00:39:18;18.08;;;15.20;;
7523;SDS011;3803;51.666;7.630;2023-02-05T00:39:40;15.98;;;14.25;;
7523;SDS011;3803;51.666;7.630;2023-02-05T00:40:01;17.65;;;14.32;;
7523;SDS011;3803;51.666;7.630;2023-02-05T00:40:22;18.02;;;14.70;;
7523;SDS011;3803;51.666;7.630;2023-02-05T00:40:43;19.13;;;15.20;;
7523;SDS011;3803;51.666;7.630;2023-02-05T00:41:03;19.47;;;15.57;;
7523;SDS011;3803;51.666;7.630;2023-02-05T00:41:24;18.23;;;15.13;;
7523;SDS011;3803;51.666;7.630;2023-02-05T00:41:45;18.52;;;15.32;;
7523;SDS011;3803;51.666;7.630;2023-02-05T00:42:05;19.02;;;15.65;;
7523;SDS011;3803;51.666;7.630;2023-02-05T00:42:26;21.10;;;16.23;;
7523;SDS011;3803;51.666;7.630;2023-02-05T00:42:47;22.35;;;16.40;;
7523;SDS011;3803;51.666;7.630;2023-02-05T00:43:08;22.67;;;16.25;;
7523;SDS011;3803;51.666;7.630;2023-02-05T00:43:29;22.33;;;16.10;;
7523;SDS011;3803;51.666;7.630;2023-02-05T00:43:50;21.35;;;15.65;;
7523;SDS011;3803;51.666;7.630;2023-02-05T00:44:11;20.90;;;15.85;;
7523;SDS011;3803;51.666;7.630;2023-02-05T00:44:32;19.65;;;15.77;;
7523;SDS011;3803;51.666;7.630;2023-02-05T00:44:53;20.35;;;15.45;;
7523;SDS011;3803;51.666;7.630;2023-02-05T00:45:14;21.08;;;15.18;;
7523;SDS011;3803;51.666;7.630;2023-02-05T00:45:34;21.70;;;15.13;;
7523;SDS011;3803;51.666;7.630;2023-02-05T00:45:55;19.92;;;15.52;;
7523;SDS011;3803;51.666;7.630;2023-02-05T00:46:17;18.17;;;14.88;;
7523;SDS011;3803;51.666;7.630;2023-02-05T00:46:37;17.17;;;14.75;;
7523;SDS011;3803;51.666;7.630;2023-02-05T00:46:58;17.42;;;14.32;;
7523;SDS011;3803;51.666;7.630;2023-02-05T00:47:19;18.20;;;14.90;;
7523;SDS011;3803;51.666;7.630;2023-02-05T00:47:40;18.83;;;14.30;;
7523;SDS011;3803;51.666;7.630;2023-02-05T00:48:01;17.57;;;13.83;;
7523;SDS011;3803;51.666;7.630;2023-02-05T00:48:22;17.05;;;13.52;;
7523;SDS011;3803;51.666;7.630;2023-02-05T00:48:43;15.90;;;14.20;;
7523;SDS011;3803;51.666;7.630;2023-02-05T00:49:04;18.38;;;14.90;;
7523;SDS011;3803;51.666;7.630;2023-02-05T00:49:25;17.63;;;14.82;;
7523;SDS011;3803;51.666;7.630;2023-02-05T00:49:45;18.60;;;14.50;;
7523;SDS011;3803;51.666;7.630;2023-02-05T00:50:06;18.27;;;14.10;;
7523;SDS011;3803;51.666;7.630;2023-02-05T00:50:27;21.35;;;15.05;;
7523;SDS011;3803;51.666;7.630;2023-02-05T00:50:48;21.38;;;15.55;;
7523;SDS011;3803;51.666;7.630;2023-02-05T00:51:10;20.40;;;15.88;;
7523;SDS011;3803;51.666;7.630;2023-02-05T00:51:31;16.80;;;14.85;;
7523;SDS011;3803;51.666;7.630;2023-02-05T00:51:52;16.77;;;14.25;;
7523;SDS011;3803;51.666;7.630;2023-02-05T00:52:13;18.10;;;14.10;;
7523;SDS011;3803;51.666;7.630;2023-02-05T00:52:33;19.60;;;14.43;;
7523;SDS011;3803;51.666;7.630;2023-02-05T00:52:54;20.98;;;15.40;;
7523;SDS011;3803;51.666;7.630;2023-02-05T00:53:15;19.88;;;15.45;;
7523;SDS011;3803;51.666;7.630;2023-02-05T00:53:35;19.10;;;15.27;;
7523;SDS011;3803;51.666;7.630;2023-02-05T00:53:56;19.33;;;14.70;;
7523;SDS011;3803;51.666;7.630;2023-02-05T00:54:17;19.58;;;14.30;;
7523;SDS011;3803;51.666;7.630;2023-02-05T00:54:37;19.57;;;14.40;;
7523;SDS011;3803;51.666;7.630;2023-02-05T00:54:58;19.60;;;14.90;;
7523;SDS011;3803;51.666;7.630;2023-02-05T00:55:18;20.15;;;15.30;;
7523;SDS011;3803;51.666;7.630;2023-02-05T00:55:40;19.30;;;15.35;;
7523;SDS011;3803;51.666;7.630;2023-02-05T00:56:01;19.00;;;15.50;;
7523;SDS011;3803;51.666;7.630;2023-02-05T00:56:22;17.37;;;15.27;;
7523;SDS011;3803;51.666;7.630;2023-02-05T00:56:57;18.50;;;15.27;;
7523;SDS011;3803;51.666;7.630;2023-02-05T00:58:40;20.23;;;15.25;;
7523;SDS011;3803;51.666;7.630;2023-02-05T00:59:06;19.83;;;15.25;;
7523;SDS011;3803;51.666;7.630;2023-02-05T00:59:27;20.73;;;14.73;;
7523;SDS011;3803;51.666;7.630;2023-02-05T00:59:47;21.92;;;14.95;;
7523;SDS011;3803;51.666;7.630;2023-02-05T01:00:08;21.60;;;14.85;;
7523;SDS011;3803;51.666;7.630;2023-02-05T01:00:29;20.05;;;14.77;;
7523;SDS011;3803;51.666;7.630;2023-02-05T01:00:50;18.75;;;15.38;;
7523;SDS011;3803;51.666;7.630;2023-02-05T01:01:11;19.03;;;15.40;;
7523;SDS011;3803;51.666;7.630;2023-02-05T01:01:33;19.70;;;15.55;;
7523;SDS011;3803;51.666;7.630;2023-02-05T01:01:53;19.47;;;15.00;;
7523;SDS011;3803;51.666;7.630;2023-02-05T01:02:14;18.73;;;14.50;;
7523;SDS011;3803;51.666;7.630;2023-02-05T01:02:36;18.38;;;14.25;;
7523;SDS011;3803;51.666;7.630;2023-02-05T01:02:57;18.55;;;14.43;;
7523;SDS011;3803;51.666;7.630;2023-02-05T01:03:20;17.90;;;15.23;;
7523;SDS011;3803;51.666;7.630;2023-02-05T01:03:41;18.25;;;14.82;;
7523;SDS011;3803;51.666;7.630;2023-02-05T01:04:02;17.55;;;14.88;;
7523;SDS011;3803;51.666;7.630;2023-02-05T01:04:23;17.10;;;14.30;;
7523;SDS011;3803;51.666;7.630;2023-02-05T01:04:44;16.00;;;14.17;;
7523;SDS011;3803;51.666;7.630;2023-02-05T01:05:04;16.65;;;14.15;;
7523;SDS011;3803;51.666;7.630;2023-02-05T01:05:25;17.63;;;14.55;;
7523;SDS011;3803;51.666;7.630;2023-02-05T01:05:47;21.35;;;14.90;;
7523;SDS011;3803;51.666;7.630;2023-02-05T01:06:08;22.00;;;15.17;;
7523;SDS011;3803;51.666;7.630;2023-02-05T01:06:29;22.30;;;15.10;;
7523;SDS011;3803;51.666;7.630;2023-02-05T01:06:49;20.53;;;14.90;;
7523;SDS011;3803;51.666;7.630;2023-02-05T01:07:10;19.97;;;14.87;;
7523;SDS011;3803;51.666;7.630;2023-02-05T01:07:30;19.73;;;15.10;;
7523;SDS011;3803;51.666;7.630;2023-02-05T01:07:51;18.17;;;15.27;;
7523;SDS011;3803;51.666;7.630;2023-02-05T01:08:12;19.83;;;15.38;;
7523;SDS011;3803;51.666;7.630;2023-02-05T01:08:33;18.90;;;15.15;;
7523;SDS011;3803;51.666;7.630;2023-02-05T01:08:54;18.03;;;14.87;;
7523;SDS011;3803;51.666;7.630;2023-02-05T01:09:14;17.58;;;14.80;;
7523;SDS011;3803;51.666;7.630;2023-02-05T01:09:36;18.50;;;14.98;;
7523;SDS011;3803;51.666;7.630;2023-02-05T01:09:56;20.73;;;15.25;;
7523;SDS011;3803;51.666;7.630;2023-02-05T01:10:17;19.52;;;14.80;;
7523;SDS011;3803;51.666;7.630;2023-02-05T01:10:42;19.33;;;14.55;;
7523;SDS011;3803;51.666;7.630;2023-02-05T01:11:12;17.77;;;14.75;;
7523;SDS011;3803;51.666;7.630;2023-02-05T01:11:34;19.45;;;15.77;;
7523;SDS011;3803;51.666;7.630;2023-02-05T01:11:54;22.77;;;16.40;;
7523;SDS011;3803;51.666;7.630;2023-02-05T01:12:16;22.60;;;16.05;;
7523;SDS011;3803;51.666;7.630;2023-02-05T01:12:37;21.33;;;15.53;;
7523;SDS011;3803;51.666;7.630;2023-02-05T01:12:57;19.08;;;15.00;;
7523;SDS011;3803;51.666;7.630;2023-02-05T01:13:18;20.23;;;15.35;;
7523;SDS011;3803;51.666;7.630;2023-02-05T01:13:39;19.83;;;14.52;;
7523;SDS011;3803;51.666;7.630;2023-02-05T01:14:00;19.95;;;14.18;;
7523;SDS011;3803;51.666;7.630;2023-02-05T01:14:21;18.55;;;13.68;;
7523;SDS011;3803;51.666;7.630;2023-02-05T01:14:41;19.67;;;14.10;;
7523;SDS011;3803;51.666;7.630;2023-02-05T01:15:04;19.70;;;14.23;;
7523;SDS011;3803;51.666;7.630;2023-02-05T01:15:26;20.50;;;15.10;;
7523;SDS011;3803;51.666;7.630;2023-02-05T01:15:46;19.47;;;14.97;;
7523;SDS011;3803;51.666;7.630;2023-02-05T01:16:07;21.13;;;15.70;;
7523;SDS011;3803;51.666;7.630;2023-02-05T01:16:30;22.63;;;16.10;;
7523;SDS011;3803;51.666;7.630;2023-02-05T01:16:51;24.42;;;16.45;;
7523;SDS011;3803;51.666;7.630;2023-02-05T01:17:12;23.60;;;16.20;;
7523;SDS011;3803;51.666;7.630;2023-02-05T01:17:32;21.92;;;15.75;;
7523;SDS011;3803;51.666;7.630;2023-02-05T01:17:54;21.77;;;16.20;;
7523;SDS011;3803;51.666;7.630;2023-02-05T01:18:15;21.50;;;16.00;;
7523;SDS011;3803;51.666;7.630;2023-02-05T01:18:36;21.20;;;16.40;;
7523;SDS011;3803;51.666;7.630;2023-02-05T01:18:56;21.20;;;16.05;;
7523;SDS011;3803;51.666;7.630;2023-02-05T01:19:18;21.70;;;16.48;;
7523;SDS011;3803;51.666;7.630;2023-02-05T01:19:38;22.07;;;16.50;;
7523;SDS011;3803;51.666;7.630;2023-02-05T01:19:59;21.50;;;16.00;;
7523;SDS011;3803;51.666;7.630;2023-02-05T01:20:19;22.05;;;15.70;;
7523;SDS011;3803;51.666;7.630;2023-02-05T01:20:41;22.77;;;15.20;;
7523;SDS011;3803;51.666;7.630;2023-02-05T01:21:02;22.23;;;15.50;;
7523;SDS011;3803;51.666;7.630;2023-02-05T01:21:23;24.58;;;15.95;;
7523;SDS011;3803;51.666;7.630;2023-02-05T01:21:44;22.95;;;16.20;;
7523;SDS011;3803;51.666;7.630;2023-02-05T01:22:04;23.52;;;15.93;;
7523;SDS011;3803;51.666;7.630;2023-02-05T01:22:25;20.35;;;15.65;;
7523;SDS011;3803;51.666;7.630;2023-02-05T01:22:46;22.38;;;16.10;;
7523;SDS011;3803;51.666;7.630;2023-02-05T01:23:09;24.10;;;16.33;;
7523;SDS011;3803;51.666;7.630;2023-02-05T01:23:30;23.73;;;16.00;;
7523;SDS011;3803;51.666;7.630;2023-02-05T01:23:51;21.90;;;15.88;;
7523;SDS011;3803;51.666;7.630;2023-02-05T01:24:13;24.63;;;17.05;;
7523;SDS011;3803;51.666;7.630;2023-02-05T01:24:34;25.27;;;17.10;;
7523;SDS011;3803;51.666;7.630;2023-02-05T01:24:54;24.30;;;16.58;;
7523;SDS011;3803;51.666;7.630;2023-02-05T01:25:15;19.67;;;15.57;;
7523;SDS011;3803;51.666;7.630;2023-02-05T01:25:36;20.15;;;15.73;;
7523;SDS011;3803;51.666;7.630;2023-02-05T01:25:57;22.98;;;16.00;;
7523;SDS011;3803;51.666;7.630;2023-02-05T01:26:17;27.15;;;16.88;;
7523;SDS011;3803;51.666;7.630;2023-02-05T01:26:38;27.57;;;17.73;;
7523;SDS011;3803;51.666;7.630;2023-02-05T01:26:59;25.08;;;17.67;;
7523;SDS011;3803;51.666;7.630;2023-02-05T01:27:20;23.63;;;17.33;;
7523;SDS011;3803;51.666;7.630;2023-02-05T01:27:41;22.52;;;16.48;;
7523;SDS011;3803;51.666;7.630;2023-02-05T01:28:02;22.80;;;16.50;;
7523;SDS011;3803;51.666;7.630;2023-02-05T01:28:23;21.95;;;16.35;;
7523;SDS011;3803;51.666;7.630;2023-02-05T01:28:44;22.67;;;16.67;;
7523;SDS011;3803;51.666;7.630;2023-02-05T01:29:05;24.60;;;16.40;;
7523;SDS011;3803;51.666;7.630;2023-02-05T01:29:27;24.40;;;16.00;;
7523;SDS011;3803;51.666;7.630;2023-02-05T01:29:49;24.88;;;15.80;;
7523;SDS011;3803;51.666;7.630;2023-02-05T01:30:10;21.85;;;15.80;;
7523;SDS011;3803;51.666;7.630;2023-02-05T01:30:31;22.30;;;16.23;;
7523;SDS011;3803;51.666;7.630;2023-02-05T01:30:52;24.45;;;16.60;;
7523;SDS011;3803;51.666;7.630;2023-02-05T01:31:13;24.42;;;16.67;;
7523;SDS011;3803;51.666;7.630;2023-02-05T01:31:34;25.48;;;16.30;;
7523;SDS011;3803;51.666;7.630;2023-02-05T01:31:54;23.67;;;16.07;;
7523;SDS011;3803;51.666;7.630;2023-02-05T01:32:16;25.20;;;15.85;;
7523;SDS011;3803;51.666;7.630;2023-02-05T01:32:37;23.45;;;15.95;;
7523;SDS011;3803;51.666;7.630;2023-02-05T01:32:59;21.27;;;16.00;;
7523;SDS011;3803;51.666;7.630;2023-02-05T01:33:20;19.40;;;16.17;;
7523;SDS011;3803;51.666;7.630;2023-02-05T01:33:41;20.90;;;16.37;;
7523;SDS011;3803;51.666;7.630;2023-02-05T01:34:02;21.90;;;15.98;;
7523;SDS011;3803;51.666;7.630;2023-02-05T01:34:22;26.55;;;16.00;;
7523;SDS011;3803;51.666;7.630;2023-02-05T01:34:43;27.38;;;16.30;;
7523;SDS011;3803;51.666;7.630;2023-02-05T01:35:04;28.65;;;17.17;;
7523;SDS011;3803;51.666;7.630;2023-02-05T01:35:25;22.80;;;16.42;;
7523;SDS011;3803;51.666;7.630;2023-02-05T01:35:46;21.33;;;15.73;;
7523;SDS011;3803;51.666;7.630;2023-02-05T01:36:06;20.00;;;15.30;;
7523;SDS011;3803;51.666;7.630;2023-02-05T01:36:27;21.02;;;16.15;;
7523;SDS011;3803;51.666;7.630;2023-02-05T01:36:48;22.35;;;16.02;;
7523;SDS011;3803;51.666;7.630;2023-02-05T01:37:48;22.55;;;16.05;;
7523;SDS011;3803;51.666;7.630;2023-02-05T01:38:09;23.10;;;15.90;;
7523;SDS011;3803;51.666;7.630;2023-02-05T01:38:31;25.45;;;16.20;;
7523;SDS011;3803;51.666;7.630;2023-02-05T01:38:51;25.08;;;16.60;;
7523;SDS011;3803;51.666;7.630;2023-02-05T01:39:13;24.58;;;16.58;;
7523;SDS011;3803;51.666;7.630;2023-02-05T01:39:34;23.05;;;16.45;;
7523;SDS011;3803;51.666;7.630;2023-02-05T01:39:56;22.75;;;16.38;;
7523;SDS011;3803;51.666;7.630;2023-02-05T01:40:17;22.92;;;16.33;;
7523;SDS011;3803;51.666;7.630;2023-02-05T01:40:38;24.73;;;16.63;;
7523;SDS011;3803;51.666;7.630;2023-02-05T01:40:59;23.83;;;16.70;;
7523;SDS011;3803;51.666;7.630;2023-02-05T01:41:19;24.00;;;18.10;;
7523;SDS011;3803;51.666;7.630;2023-02-05T01:41:40;24.08;;;17.90;;
7523;SDS011;3803;51.666;7.630;2023-02-05T01:42:04;22.76;;;16.76;;
7523;SDS011;3803;51.666;7.630;2023-02-05T01:42:35;22.40;;;15.77;;
7523;SDS011;3803;51.666;7.630;2023-02-05T01:42:56;23.20;;;16.40;;
7523;SDS011;3803;51.666;7.630;2023-02-05T01:43:17;26.48;;;17.38;;
7523;SDS011;3803;51.666;7.630;2023-02-05T01:43:38;27.33;;;17.38;;
7523;SDS011;3803;51.666;7.630;2023-02-05T01:44:32;23.40;;;15.90;;
7523;SDS011;3803;51.666;7.630;2023-02-05T01:46:29;24.55;;;17.42;;
7523;SDS011;3803;51.666;7.630;2023-02-05T01:46:51;27.40;;;17.56;;
7523;SDS011;3803;51.666;7.630;2023-02-05T01:47:12;29.38;;;17.48;;
7523;SDS011;3803;51.666;7.630;2023-02-05T01:47:33;25.85;;;17.23;;
7523;SDS011;3803;51.666;7.630;2023-02-05T01:47:56;23.47;;;17.00;;
7523;SDS011;3803;51.666;7.630;2023-02-05T01:48:19;23.92;;;17.38;;
7523;SDS011;3803;51.666;7.630;2023-02-05T01:48:47;25.58;;;17.20;;
7523;SDS011;3803;51.666;7.630;2023-02-05T01:49:15;30.98;;;17.40;;
7523;SDS011;3803;51.666;7.630;2023-02-05T01:49:43;29.95;;;17.10;;
7523;SDS011;3803;51.666;7.630;2023-02-05T01:50:05;22.80;;;16.15;;
7523;SDS011;3803;51.666;7.630;2023-02-05T01:50:54;22.58;;;16.50;;
7523;SDS011;3803;51.666;7.630;2023-02-05T01:51:18;23.98;;;16.38;;
7523;SDS011;3803;51.666;7.630;2023-02-05T01:51:40;23.85;;;16.27;;
7523;SDS011;3803;51.666;7.630;2023-02-05T01:52:04;22.63;;;16.40;;
7523;SDS011;3803;51.666;7.630;2023-02-05T01:52:29;21.48;;;16.50;;
7523;SDS011;3803;51.666;7.630;2023-02-05T01:52:49;22.27;;;16.83;;
7523;SDS011;3803;51.666;7.630;2023-02-05T01:53:18;21.00;;;16.13;;
7523;SDS011;3803;51.666;7.630;2023-02-05T01:53:44;24.72;;;16.58;;
7523;SDS011;3803;51.666;7.630;2023-02-05T01:54:07;24.75;;;17.00;;
7523;SDS011;3803;51.666;7.630;2023-02-05T01:54:28;23.50;;;17.40;;
7523;SDS011;3803;51.666;7.630;2023-02-05T01:54:51;24.95;;;17.00;;
7523;SDS011;3803;51.666;7.630;2023-02-05T01:55:14;25.10;;;16.13;;
7523;SDS011;3803;51.666;7.630;2023-02-05T01:55:36;23.50;;;15.85;;
7523;SDS011;3803;51.666;7.630;2023-02-05T01:56:00;23.88;;;16.75;;
7523;SDS011;3803;51.666;7.630;2023-02-05T01:56:50;24.70;;;17.10;;
7523;SDS011;3803;51.666;7.630;2023-02-05T01:57:18;28.08;;;16.98;;
7523;SDS011;3803;51.666;7.630;2023-02-05T01:57:43;27.55;;;16.70;;
7523;SDS011;3803;51.666;7.630;2023-02-05T01:58:04;24.55;;;16.33;;
7523;SDS011;3803;51.666;7.630;2023-02-05T01:58:27;22.35;;;15.68;;
7523;SDS011;3803;51.666;7.630;2023-02-05T01:58:52;20.67;;;15.70;;
7523;SDS011;3803;51.666;7.630;2023-02-05T01:59:19;20.02;;;15.32;;
7523;SDS011;3803;51.666;7.630;2023-02-05T01:59:43;21.73;;;16.27;;
7523;SDS011;3803;51.666;7.630;2023-02-05T02:00:05;24.27;;;16.45;;
7523;SDS011;3803;51.666;7.630;2023-02-05T02:00:35;23.08;;;15.68;;
7523;SDS011;3803;51.666;7.630;2023-02-05T02:00:57;21.25;;;15.70;;
7523;SDS011;3803;51.666;7.630;2023-02-05T02:01:18;22.60;;;16.02;;
7523;SDS011;3803;51.666;7.630;2023-02-05T02:01:39;25.42;;;17.02;;
7523;SDS011;3803;51.666;7.630;2023-02-05T02:02:00;24.33;;;16.88;;
7523;SDS011;3803;51.666;7.630;2023-02-05T02:02:27;23.15;;;16.25;;
7523;SDS011;3803;51.666;7.630;2023-02-05T02:02:49;22.75;;;15.48;;
7523;SDS011;3803;51.666;7.630;2023-02-05T02:03:10;21.80;;;15.30;;
7523;SDS011;3803;51.666;7.630;2023-02-05T02:03:34;22.15;;;15.48;;
7523;SDS011;3803;51.666;7.630;2023-02-05T02:03:55;22.75;;;16.02;;
7523;SDS011;3803;51.666;7.630;2023-02-05T02:04:36;22.55;;;16.00;;
7523;SDS011;3803;51.666;7.630;2023-02-05T02:04:59;21.55;;;15.95;;
7523;SDS011;3803;51.666;7.630;2023-02-05T02:05:26;23.65;;;15.80;;
7523;SDS011;3803;51.666;7.630;2023-02-05T02:05:46;24.20;;;15.93;;
7523;SDS011;3803;51.666;7.630;2023-02-05T02:06:07;21.25;;;15.57;;
7523;SDS011;3803;51.666;7.630;2023-02-05T02:06:28;22.40;;;16.08;;
7523;SDS011;3803;51.666;7.630;2023-02-05T02:06:50;22.92;;;15.70;;
7523;SDS011;3803;51.666;7.630;2023-02-05T02:07:11;24.10;;;15.68;;
7523;SDS011;3803;51.666;7.630;2023-02-05T02:07:35;25.52;;;15.63;;
7523;SDS011;3803;51.666;7.630;2023-02-05T02:07:55;28.10;;;16.37;;
7523;SDS011;3803;51.666;7.630;2023-02-05T02:08:16;26.83;;;16.30;;
7523;SDS011;3803;51.666;7.630;2023-02-05T02:08:39;23.40;;;16.02;;
7523;SDS011;3803;51.666;7.630;2023-02-05T02:09:00;22.65;;;15.75;;
7523;SDS011;3803;51.666;7.630;2023-02-05T02:09:22;26.40;;;16.83;;
7523;SDS011;3803;51.666;7.630;2023-02-05T02:09:43;26.87;;;17.00;;
7523;SDS011;3803;51.666;7.630;2023-02-05T02:10:06;25.20;;;16.67;;
7523;SDS011;3803;51.666;7.630;2023-02-05T02:10:29;23.67;;;15.63;;
7523;SDS011;3803;51.666;7.630;2023-02-05T02:10:52;23.83;;;15.45;;
7523;SDS011;3803;51.666;7.630;2023-02-05T02:11:16;21.77;;;15.03;;
7523;SDS011;3803;51.666;7.630;2023-02-05T02:11:40;22.80;;;15.20;;
7523;SDS011;3803;51.666;7.630;2023-02-05T02:12:03;26.30;;;16.15;;
7523;SDS011;3803;51.666;7.630;2023-02-05T02:12:26;26.63;;;15.90;;
7523;SDS011;3803;51.666;7.630;2023-02-05T02:12:49;25.02;;;15.35;;
7523;SDS011;3803;51.666;7.630;2023-02-05T02:13:10;21.58;;;15.40;;
7523;SDS011;3803;51.666;7.630;2023-02-05T02:13:32;21.60;;;16.15;;
7523;SDS011;3803;51.666;7.630;2023-02-05T02:13:57;22.63;;;16.00;;
7523;SDS011;3803;51.666;7.630;2023-02-05T02:14:20;22.25;;;15.70;;
7523;SDS011;3803;51.666;7.630;2023-02-05T02:14:43;24.17;;;15.63;;
7523;SDS011;3803;51.666;7.630;2023-02-05T02:15:09;22.70;;;16.55;;
7523;SDS011;3803;51.666;7.630;2023-02-05T02:15:33;21.20;;;16.48;;
7523;SDS011;3803;51.666;7.630;2023-02-05T02:15:54;23.58;;;16.25;;
7523;SDS011;3803;51.666;7.630;2023-02-05T02:16:16;26.23;;;16.20;;
7523;SDS011;3803;51.666;7.630;2023-02-05T02:16:37;25.50;;;16.10;;